sensor_id;sensor_type;location;lat;lon;timestamp;pressure;altitude;pressure_sealevel;temperature;humidity
25759;BME280;13604;52.496;13.456;2023-04-01T00:00:23;99288.88;;;7.87;100.00
25759;BME280;13604;52.496;13.456;2023-04-01T00:02:48;99282.94;;;7.89;100.00
25759;BME280;13604;52.496;13.456;2023-04-01T00:05:14;99272.41;;;7.85;100.00
25759;BME280;13604;52.496;13.456;2023-04-01T00:07:41;99283.63;;;7.85;100.00
25759;BME280;13604;52.496;13.456;2023-04-01T00:10:08;99298.47;;;7.89;100.00
25759;BME280;13604;52.496;13.456;2023-04-01T00:12:34;99273.88;;;7.77;100.00
25759;BME280;13604;52.496;13.456;2023-04-01T00:15:01;99285.31;;;7.83;100.00
25759;BME280;13604;52.496;13.456;2023-04-01T00:17:26;99266.69;;;7.69;100.00
25759;BME280;13604;52.496;13.456;2023-04-01T00:19:54;99277.28;;;7.76;100.00
25759;BME280;13604;52.496;13.456;2023-04-01T00:22:20;99272.97;;;7.76;100.00
25759;BME280;13604;52.496;13.456;2023-04-01T00:24:45;99271.44;;;7.81;100.00
25759;BME280;13604;52.496;13.456;2023-04-01T00:27:10;99255.72;;;7.77;100.00
25759;BME280;13604;52.496;13.456;2023-04-01T00:29:36;99285.69;;;7.96;100.00
25759;BME280;13604;52.496;13.456;2023-04-01T00:32:01;99288.28;;;7.96;100.00
25759;BME280;13604;52.496;13.456;2023-04-01T00:34:26;99279.59;;;7.93;100.00
25759;BME280;13604;52.496;13.456;2023-04-01T00:36:52;99277.97;;;7.97;100.00
25759;BME280;13604;52.496;13.456;2023-04-01T00:39:19;99273.75;;;8.01;100.00
25759;BME280;13604;52.496;13.456;2023-04-01T00:41:44;99291.34;;;8.09;100.00
25759;BME280;13604;52.496;13.456;2023-04-01T00:44:22;99285.94;;;8.03;100.00
25759;BME280;13604;52.496;13.456;2023-04-01T00:46:48;99290.25;;;8.03;100.00
25759;BME280;13604;52.496;13.456;2023-04-01T00:49:15;99267.50;;;7.94;100.00
25759;BME280;13604;52.496;13.456;2023-04-01T00:51:44;99280.50;;;7.96;100.00
25759;BME280;13604;52.496;13.456;2023-04-01T00:54:11;99289.25;;;7.98;100.00
25759;BME280;13604;52.496;13.456;2023-04-01T00:56:44;99287.66;;;8.03;100.00
25759;BME280;13604;52.496;13.456;2023-04-01T00:59:13;99286.66;;;7.98;100.00
25759;BME280;13604;52.496;13.456;2023-04-01T01:01:39;99296.38;;;8.05;100.00
25759;BME280;13604;52.496;13.456;2023-04-01T01:04:05;99284.16;;;8.02;100.00
25759;BME280;13604;52.496;13.456;2023-04-01T01:06:52;99277.16;;;7.98;100.00
25759;BME280;13604;52.496;13.456;2023-04-01T01:09:28;99291.28;;;8.08;100.00
25759;BME280;13604;52.496;13.456;2023-04-01T01:12:07;99281.63;;;8.04;100.00
25759;BME280;13604;52.496;13.456;2023-04-01T01:15:12;99294.09;;;8.14;100.00
25759;BME280;13604;52.496;13.456;2023-04-01T01:17:48;99277.41;;;8.07;100.00
25759;BME280;13604;52.496;13.456;2023-04-01T01:26:13;99268.63;;;8.02;100.00
25759;BME280;13604;52.496;13.456;2023-04-01T01:29:00;99267.66;;;7.99;100.00
25759;BME280;13604;52.496;13.456;2023-04-01T01:34:40;99296.03;;;8.21;100.00
25759;BME280;13604;52.496;13.456;2023-04-01T01:37:16;99282.75;;;8.12;100.00
25759;BME280;13604;52.496;13.456;2023-04-01T01:39:48;99291.13;;;8.03;100.00
25759;BME280;13604;52.496;13.456;2023-04-01T01:42:16;99299.78;;;8.04;100.00
25759;BME280;13604;52.496;13.456;2023-04-01T01:44:45;99293.97;;;8.11;100.00
25759;BME280;13604;52.496;13.456;2023-04-01T01:47:13;99295.88;;;8.17;100.00
25759;BME280;13604;52.496;13.456;2023-04-01T01:49:39;99298.47;;;8.17;100.00
25759;BME280;13604;52.496;13.456;2023-04-01T01:52:07;99286.97;;;8.08;100.00
25759;BME280;13604;52.496;13.456;2023-04-01T01:54:32;99303.53;;;8.14;100.00
25759;BME280;13604;52.496;13.456;2023-04-01T01:57:09;99293.88;;;8.08;100.00
25759;BME280;13604;52.496;13.456;2023-04-01T01:59:37;99304.53;;;8.17;100.00
25759;BME280;13604;52.496;13.456;2023-04-01T02:02:04;99307.16;;;8.19;100.00
25759;BME280;13604;52.496;13.456;2023-04-01T02:04:36;99292.97;;;8.07;100.00
25759;BME280;13604;52.496;13.456;2023-04-01T02:07:07;99298.38;;;8.14;100.00
25759;BME280;13604;52.496;13.456;2023-04-01T02:09:34;99288.84;;;8.13;100.00
25759;BME280;13604;52.496;13.456;2023-04-01T02:12:03;99282.75;;;8.12;100.00
25759;BME280;13604;52.496;13.456;2023-04-01T02:14:37;99307.38;;;8.25;100.00
25759;BME280;13604;52.496;13.456;2023-04-01T02:17:17;99301.88;;;8.16;100.00
25759;BME280;13604;52.496;13.456;2023-04-01T02:20:04;99309.03;;;8.23;100.00
25759;BME280;13604;52.496;13.456;2023-04-01T02:22:35;99322.00;;;8.23;100.00
25759;BME280;13604;52.496;13.456;2023-04-01T02:25:05;99307.31;;;8.23;100.00
25759;BME280;13604;52.496;13.456;2023-04-01T02:27:31;99297.66;;;8.18;100.00
25759;BME280;13604;52.496;13.456;2023-04-01T02:29:57;99311.47;;;8.18;100.00
25759;BME280;13604;52.496;13.456;2023-04-01T02:32:23;99296.53;;;8.09;100.00
25759;BME280;13604;52.496;13.456;2023-04-01T02:34:50;99282.38;;;8.00;100.00
25759;BME280;13604;52.496;13.456;2023-04-01T02:37:15;99291.22;;;8.06;100.00
25759;BME280;13604;52.496;13.456;2023-04-01T02:39:41;99308.16;;;7.95;100.00
25759;BME280;13604;52.496;13.456;2023-04-01T02:42:07;99304.41;;;8.13;100.00
25759;BME280;13604;52.496;13.456;2023-04-01T02:44:33;99297.19;;;8.04;100.00
25759;BME280;13604;52.496;13.456;2023-04-01T02:46:58;99297.38;;;8.10;100.00
25759;BME280;13604;52.496;13.456;2023-04-01T02:49:23;99299.78;;;8.04;100.00
25759;BME280;13604;52.496;13.456;2023-04-01T02:51:49;99317.53;;;8.19;100.00
25759;BME280;13604;52.496;13.456;2023-04-01T02:54:14;99312.19;;;8.13;100.00
25759;BME280;13604;52.496;13.456;2023-04-01T02:56:39;99304.19;;;8.06;100.00
25759;BME280;13604;52.496;13.456;2023-04-01T02:59:05;99304.81;;;7.99;100.00
25759;BME280;13604;52.496;13.456;2023-04-01T03:01:30;99321.59;;;8.10;100.00
25759;BME280;13604;52.496;13.456;2023-04-01T03:03:55;99334.06;;;8.21;100.00
25759;BME280;13604;52.496;13.456;2023-04-01T03:06:20;99333.44;;;8.29;100.00
25759;BME280;13604;52.496;13.456;2023-04-01T03:08:46;99319.38;;;8.21;100.00
25759;BME280;13604;52.496;13.456;2023-04-01T03:11:12;99317.84;;;8.28;100.00
25759;BME280;13604;52.496;13.456;2023-04-01T03:13:38;99331.56;;;8.25;100.00
25759;BME280;13604;52.496;13.456;2023-04-01T03:16:03;99315.84;;;8.19;100.00
25759;BME280;13604;52.496;13.456;2023-04-01T03:18:29;99319.31;;;8.20;100.00
25759;BME280;13604;52.496;13.456;2023-04-01T03:20:54;99310.59;;;8.18;100.00
25759;BME280;13604;52.496;13.456;2023-04-01T03:23:20;99319.47;;;8.24;100.00
25759;BME280;13604;52.496;13.456;2023-04-01T03:25:46;99335.41;;;8.37;100.00
25759;BME280;13604;52.496;13.456;2023-04-01T03:28:12;99324.84;;;8.31;100.00
25759;BME280;13604;52.496;13.456;2023-04-01T03:30:38;99323.13;;;8.31;100.00
25759;BME280;13604;52.496;13.456;2023-04-01T03:33:03;99338.88;;;8.37;100.00
25759;BME280;13604;52.496;13.456;2023-04-01T03:35:29;99309.84;;;8.22;100.00
25759;BME280;13604;52.496;13.456;2023-04-01T03:37:54;99327.41;;;8.29;100.00
25759;BME280;13604;52.496;13.456;2023-04-01T03:40:21;99331.63;;;8.27;100.00
25759;BME280;13604;52.496;13.456;2023-04-01T03:42:46;99342.22;;;8.33;100.00
25759;BME280;13604;52.496;13.456;2023-04-01T03:45:12;99350.81;;;8.32;100.00
25759;BME280;13604;52.496;13.456;2023-04-01T03:47:38;99355.19;;;8.33;100.00
25759;BME280;13604;52.496;13.456;2023-04-01T03:50:04;99351.56;;;8.28;100.00
25759;BME280;13604;52.496;13.456;2023-04-01T03:52:30;99356.09;;;8.35;100.00
25759;BME280;13604;52.496;13.456;2023-04-01T03:54:55;99332.22;;;8.18;100.00
25759;BME280;13604;52.496;13.456;2023-04-01T03:57:20;99362.91;;;8.32;100.00
25759;BME280;13604;52.496;13.456;2023-04-01T03:59:46;99340.88;;;8.19;100.00
25759;BME280;13604;52.496;13.456;2023-04-01T04:02:11;99368.19;;;8.35;100.00
25759;BME280;13604;52.496;13.456;2023-04-01T04:04:36;99357.81;;;8.35;100.00
25759;BME280;13604;52.496;13.456;2023-04-01T04:07:02;99364.84;;;8.37;100.00
25759;BME280;13604;52.496;13.456;2023-04-01T04:09:27;99356.94;;;8.34;100.00
25759;BME280;13604;52.496;13.456;2023-04-01T04:11:52;99366.63;;;8.40;100.00
25759;BME280;13604;52.496;13.456;2023-04-01T04:14:17;99344.28;;;8.16;100.00
25759;BME280;13604;52.496;13.456;2023-04-01T04:16:43;99369.88;;;8.33;100.00
25759;BME280;13604;52.496;13.456;2023-04-01T04:19:09;99361.38;;;8.38;100.00
25759;BME280;13604;52.496;13.456;2023-04-01T04:21:34;99364.31;;;8.47;100.00
25759;BME280;13604;52.496;13.456;2023-04-01T04:24:00;99362.28;;;8.39;100.00
25759;BME280;13604;52.496;13.456;2023-04-01T04:26:26;99380.53;;;8.42;100.00
25759;BME280;13604;52.496;13.456;2023-04-01T04:28:51;99373.53;;;8.39;100.00
25759;BME280;13604;52.496;13.456;2023-04-01T04:31:21;99357.91;;;8.10;100.00
25759;BME280;13604;52.496;13.456;2023-04-01T04:33:47;99393.81;;;8.25;100.00
25759;BME280;13604;52.496;13.456;2023-04-01T04:36:13;99374.13;;;8.31;100.00
25759;BME280;13604;52.496;13.456;2023-04-01T04:38:38;99375.97;;;8.35;100.00
25759;BME280;13604;52.496;13.456;2023-04-01T04:41:15;99365.50;;;8.32;100.00
25759;BME280;13604;52.496;13.456;2023-04-01T04:43:49;99386.75;;;8.45;100.00
25759;BME280;13604;52.496;13.456;2023-04-01T04:46:15;99384.91;;;8.43;100.00
25759;BME280;13604;52.496;13.456;2023-04-01T04:48:40;99383.31;;;8.46;100.00
25759;BME280;13604;52.496;13.456;2023-04-01T04:51:06;99380.75;;;8.48;100.00
25759;BME280;13604;52.496;13.456;2023-04-01T04:53:31;99385.94;;;8.48;100.00
25759;BME280;13604;52.496;13.456;2023-04-01T04:55:57;99382.31;;;8.43;100.00
25759;BME280;13604;52.496;13.456;2023-04-01T04:58:22;99369.13;;;8.37;100.00
25759;BME280;13604;52.496;13.456;2023-04-01T05:00:47;99398.25;;;8.54;100.00
25759;BME280;13604;52.496;13.456;2023-04-01T05:03:13;99400.91;;;8.57;100.00
25759;BME280;13604;52.496;13.456;2023-04-01T05:05:39;99377.19;;;8.44;100.00
25759;BME280;13604;52.496;13.456;2023-04-01T05:08:05;99382.38;;;8.44;100.00
25759;BME280;13604;52.496;13.456;2023-04-01T05:10:30;99375.41;;;8.43;100.00
25759;BME280;13604;52.496;13.456;2023-04-01T05:12:56;99393.94;;;8.54;100.00
25759;BME280;13604;52.496;13.456;2023-04-01T05:15:22;99402.94;;;8.65;100.00
25759;BME280;13604;52.496;13.456;2023-04-01T05:17:47;99410.78;;;8.67;100.00
25759;BME280;13604;52.496;13.456;2023-04-01T05:20:13;99395.66;;;8.54;100.00
25759;BME280;13604;52.496;13.456;2023-04-01T05:22:38;99386.88;;;8.50;100.00
25759;BME280;13604;52.496;13.456;2023-04-01T05:25:04;99395.81;;;8.60;100.00
25759;BME280;13604;52.496;13.456;2023-04-01T05:27:29;99403.56;;;8.58;100.00
25759;BME280;13604;52.496;13.456;2023-04-01T05:29:55;99381.88;;;8.56;100.00
25759;BME280;13604;52.496;13.456;2023-04-01T05:32:21;99409.09;;;8.69;100.00
25759;BME280;13604;52.496;13.456;2023-04-01T05:34:46;99415.41;;;8.77;100.00
25759;BME280;13604;52.496;13.456;2023-04-01T05:37:11;99412.66;;;8.73;100.00
25759;BME280;13604;52.496;13.456;2023-04-01T05:39:38;99406.59;;;8.72;100.00
25759;BME280;13604;52.496;13.456;2023-04-01T05:42:05;99423.28;;;8.80;100.00
25759;BME280;13604;52.496;13.456;2023-04-01T05:44:31;99383.88;;;8.65;100.00
25759;BME280;13604;52.496;13.456;2023-04-01T05:46:56;99397.97;;;8.73;100.00
25759;BME280;13604;52.496;13.456;2023-04-01T05:49:22;99413.78;;;8.81;100.00
25759;BME280;13604;52.496;13.456;2023-04-01T05:51:47;99427.06;;;8.90;100.00
25759;BME280;13604;52.496;13.456;2023-04-01T05:54:12;99412.16;;;8.84;100.00
25759;BME280;13604;52.496;13.456;2023-04-01T05:56:38;99392.97;;;8.79;100.00
25759;BME280;13604;52.496;13.456;2023-04-01T05:59:03;99407.63;;;8.77;100.00
25759;BME280;13604;52.496;13.456;2023-04-01T06:01:28;99442.84;;;8.98;100.00
25759;BME280;13604;52.496;13.456;2023-04-01T06:03:53;99441.84;;;8.93;100.00
25759;BME280;13604;52.496;13.456;2023-04-01T06:06:28;99438.06;;;8.83;100.00
25759;BME280;13604;52.496;13.456;2023-04-01T06:08:56;99444.22;;;8.85;100.00
25759;BME280;13604;52.496;13.456;2023-04-01T06:20:26;99441.84;;;8.93;100.00
25759;BME280;13604;52.496;13.456;2023-04-01T06:23:10;99458.00;;;9.11;100.00
25759;BME280;13604;52.496;13.456;2023-04-01T06:25:52;99460.84;;;9.20;100.00
25759;BME280;13604;52.496;13.456;2023-04-01T06:33:55;99468.59;;;9.19;100.00
25759;BME280;13604;52.496;13.456;2023-04-01T06:36:51;99459.88;;;9.17;100.00
25759;BME280;13604;52.496;13.456;2023-04-01T06:39:59;99468.78;;;9.25;100.00
25759;BME280;13604;52.496;13.456;2023-04-01T06:45:44;99479.09;;;9.22;100.00
25759;BME280;13604;52.496;13.456;2023-04-01T06:53:54;99469.31;;;9.13;100.00
25759;BME280;13604;52.496;13.456;2023-04-01T06:56:25;99481.78;;;9.25;100.00
25759;BME280;13604;52.496;13.456;2023-04-01T06:59:10;99482.56;;;9.23;100.00
25759;BME280;13604;52.496;13.456;2023-04-01T07:01:40;99479.13;;;9.24;100.00
25759;BME280;13604;52.496;13.456;2023-04-01T07:04:17;99453.47;;;9.06;100.00
25759;BME280;13604;52.496;13.456;2023-04-01T07:06:53;99483.97;;;9.11;100.00
25759;BME280;13604;52.496;13.456;2023-04-01T07:09:32;99489.22;;;9.14;100.00
25759;BME280;13604;52.496;13.456;2023-04-01T07:12:02;99411.03;;;8.76;100.00
25759;BME280;13604;52.496;13.456;2023-04-01T07:14:39;99488.53;;;9.49;100.00
25759;BME280;13604;52.496;13.456;2023-04-01T07:17:30;99471.19;;;9.48;100.00
25759;BME280;13604;52.496;13.456;2023-04-01T07:20:16;99483.78;;;9.64;100.00
25759;BME280;13604;52.496;13.456;2023-04-01T07:22:44;99481.78;;;9.55;100.00
25759;BME280;13604;52.496;13.456;2023-04-01T07:25:17;99486.16;;;9.56;100.00
25759;BME280;13604;52.496;13.456;2023-04-01T07:27:44;99495.84;;;9.61;100.00
25759;BME280;13604;52.496;13.456;2023-04-01T07:30:18;99498.59;;;9.67;100.00
25759;BME280;13604;52.496;13.456;2023-04-01T07:33:04;99492.66;;;9.71;100.00
25759;BME280;13604;52.496;13.456;2023-04-01T07:35:46;99480.56;;;9.73;100.00
25759;BME280;13604;52.496;13.456;2023-04-01T07:41:32;99486.97;;;9.84;100.00
25759;BME280;13604;52.496;13.456;2023-04-01T07:44:11;99481.97;;;9.92;100.00
25759;BME280;13604;52.496;13.456;2023-04-01T07:49:48;99508.97;;;10.29;100.00
25759;BME280;13604;52.496;13.456;2023-04-01T07:52:23;99504.91;;;10.39;100.00
25759;BME280;13604;52.496;13.456;2023-04-01T07:55:03;99451.28;;;10.12;100.00
25759;BME280;13604;52.496;13.456;2023-04-01T07:57:53;99506.13;;;10.52;100.00
25759;BME280;13604;52.496;13.456;2023-04-01T08:00:25;99486.81;;;10.43;100.00
25759;BME280;13604;52.496;13.456;2023-04-01T08:03:11;99508.97;;;10.61;100.00
25759;BME280;13604;52.496;13.456;2023-04-01T08:06:00;99518.47;;;10.60;100.00
25759;BME280;13604;52.496;13.456;2023-04-01T08:08:59;99523.03;;;10.67;100.00
25759;BME280;13604;52.496;13.456;2023-04-01T08:11:39;99500.34;;;10.63;100.00
25759;BME280;13604;52.496;13.456;2023-04-01T08:19:46;99504.38;;;10.85;100.00
25759;BME280;13604;52.496;13.456;2023-04-01T08:25:16;99472.69;;;10.68;100.00
25759;BME280;13604;52.496;13.456;2023-04-01T08:27:53;99519.00;;;10.47;100.00
25759;BME280;13604;52.496;13.456;2023-04-01T08:30:24;99543.56;;;10.25;100.00
25759;BME280;13604;52.496;13.456;2023-04-01T08:35:41;99548.41;;;9.81;100.00
25759;BME280;13604;52.496;13.456;2023-04-01T08:38:18;99544.47;;;9.65;100.00
25759;BME280;13604;52.496;13.456;2023-04-01T08:40:58;99557.16;;;9.54;100.00
25759;BME280;13604;52.496;13.456;2023-04-01T08:43:40;99562.34;;;9.54;100.00
25759;BME280;13604;52.496;13.456;2023-04-01T08:46:35;99568.66;;;9.62;100.00
25759;BME280;13604;52.496;13.456;2023-04-01T08:49:41;99563.63;;;9.68;100.00
25759;BME280;13604;52.496;13.456;2023-04-01T08:52:21;99541.47;;;9.81;100.00
25759;BME280;13604;52.496;13.456;2023-04-01T08:54:56;99559.09;;;10.22;100.00
25759;BME280;13604;52.496;13.456;2023-04-01T09:01:03;99560.31;;;10.66;100.00
25759;BME280;13604;52.496;13.456;2023-04-01T09:06:29;99560.88;;;11.26;100.00
25759;BME280;13604;52.496;13.456;2023-04-01T09:09:18;99559.59;;;11.45;98.39
25759;BME280;13604;52.496;13.456;2023-04-01T09:12:14;99562.91;;;11.79;95.72
25759;BME280;13604;52.496;13.456;2023-04-01T09:17:38;99573.31;;;11.76;92.35
25759;BME280;13604;52.496;13.456;2023-04-01T09:25:50;99584.53;;;10.97;96.23
25759;BME280;13604;52.496;13.456;2023-04-01T09:31:23;99603.75;;;10.67;97.66
25759;BME280;13604;52.496;13.456;2023-04-01T09:39:36;99601.84;;;10.01;98.68
25759;BME280;13604;52.496;13.456;2023-04-01T09:45:23;99614.69;;;9.66;100.00
25759;BME280;13604;52.496;13.456;2023-04-01T09:48:15;99616.88;;;9.52;100.00
25759;BME280;13604;52.496;13.456;2023-04-01T09:51:04;99629.06;;;9.55;100.00
25759;BME280;13604;52.496;13.456;2023-04-01T09:53:56;99621.31;;;9.56;100.00
25759;BME280;13604;52.496;13.456;2023-04-01T09:57:01;99618.69;;;9.55;100.00
25759;BME280;13604;52.496;13.456;2023-04-01T10:08:19;99630.72;;;8.98;100.00
25759;BME280;13604;52.496;13.456;2023-04-01T10:11:02;99648.25;;;9.06;100.00
25759;BME280;13604;52.496;13.456;2023-04-01T10:13:58;99652.84;;;9.13;100.00
25759;BME280;13604;52.496;13.456;2023-04-01T10:16:47;99648.59;;;9.15;100.00
25759;BME280;13604;52.496;13.456;2023-04-01T10:19:23;99638.69;;;9.30;100.00
25759;BME280;13604;52.496;13.456;2023-04-01T10:22:31;99647.66;;;9.40;100.00
25759;BME280;13604;52.496;13.456;2023-04-01T10:25:19;99645.22;;;9.45;100.00
25759;BME280;13604;52.496;13.456;2023-04-01T10:31:07;99651.53;;;9.53;100.00
25759;BME280;13604;52.496;13.456;2023-04-01T10:36:43;99656.34;;;9.68;100.00
25759;BME280;13604;52.496;13.456;2023-04-01T10:42:38;99660.09;;;9.77;100.00
25759;BME280;13604;52.496;13.456;2023-04-01T10:48:18;99663.94;;;9.62;100.00
25759;BME280;13604;52.496;13.456;2023-04-01T10:54:19;99606.38;;;8.95;100.00
25759;BME280;13604;52.496;13.456;2023-04-01T10:57:16;99667.06;;;9.24;100.00
25759;BME280;13604;52.496;13.456;2023-04-01T11:00:14;99661.53;;;9.40;100.00
25759;BME280;13604;52.496;13.456;2023-04-01T11:05:58;99653.59;;;9.36;100.00
25759;BME280;13604;52.496;13.456;2023-04-01T11:08:56;99684.78;;;9.63;100.00
25759;BME280;13604;52.496;13.456;2023-04-01T11:14:31;99680.44;;;9.91;100.00
25759;BME280;13604;52.496;13.456;2023-04-01T11:19:54;99693.47;;;9.36;100.00
25759;BME280;13604;52.496;13.456;2023-04-01T11:23:04;99702.19;;;9.38;98.91
25759;BME280;13604;52.496;13.456;2023-04-01T11:31:31;99682.63;;;9.50;99.06
25759;BME280;13604;52.496;13.456;2023-04-01T11:34:18;99699.88;;;9.75;98.27
25759;BME280;13604;52.496;13.456;2023-04-01T11:37:18;99704.22;;;9.74;97.73
25759;BME280;13604;52.496;13.456;2023-04-01T11:40:05;99704.25;;;9.76;96.85
25759;BME280;13604;52.496;13.456;2023-04-01T11:42:51;99698.59;;;9.61;97.57
25759;BME280;13604;52.496;13.456;2023-04-01T11:48:07;99726.31;;;9.62;96.98
25759;BME280;13604;52.496;13.456;2023-04-01T11:50:53;99722.50;;;9.25;98.83
25759;BME280;13604;52.496;13.456;2023-04-01T11:56:38;99716.63;;;9.05;99.99
25759;BME280;13604;52.496;13.456;2023-04-01T11:59:29;99718.97;;;9.23;98.88
25759;BME280;13604;52.496;13.456;2023-04-01T12:02:08;99738.75;;;8.93;99.92
25759;BME280;13604;52.496;13.456;2023-04-01T12:04:50;99749.34;;;8.75;100.00
25759;BME280;13604;52.496;13.456;2023-04-01T12:07:34;99749.56;;;8.57;100.00
25759;BME280;13604;52.496;13.456;2023-04-01T12:10:28;99753.69;;;8.52;100.00
25759;BME280;13604;52.496;13.456;2023-04-01T12:13:29;99754.38;;;8.71;100.00
25759;BME280;13604;52.496;13.456;2023-04-01T12:18:53;99758.88;;;8.76;100.00
25759;BME280;13604;52.496;13.456;2023-04-01T12:30:34;99767.34;;;9.19;99.98
25759;BME280;13604;52.496;13.456;2023-04-01T12:33:17;99751.56;;;9.13;99.60
25759;BME280;13604;52.496;13.456;2023-04-01T12:36:13;99775.47;;;9.28;99.65
25759;BME280;13604;52.496;13.456;2023-04-01T12:41:44;99753.81;;;8.79;100.00
25759;BME280;13604;52.496;13.456;2023-04-01T12:50:16;99777.94;;;8.53;100.00
25759;BME280;13604;52.496;13.456;2023-04-01T12:52:55;99795.47;;;8.37;100.00
25759;BME280;13604;52.496;13.456;2023-04-01T12:55:35;99781.53;;;8.35;100.00
25759;BME280;13604;52.496;13.456;2023-04-01T12:58:30;99801.34;;;8.54;100.00
25759;BME280;13604;52.496;13.456;2023-04-01T13:06:33;99779.25;;;7.99;100.00
25759;BME280;13604;52.496;13.456;2023-04-01T13:09:15;99799.97;;;7.98;100.00
25759;BME280;13604;52.496;13.456;2023-04-01T13:11:52;99817.16;;;7.96;100.00
25759;BME280;13604;52.496;13.456;2023-04-01T13:14:50;99821.13;;;8.08;100.00
25759;BME280;13604;52.496;13.456;2023-04-01T13:17:33;99810.34;;;7.98;100.00
25759;BME280;13604;52.496;13.456;2023-04-01T13:20:18;99809.16;;;7.89;100.00
25759;BME280;13604;52.496;13.456;2023-04-01T13:26:04;99839.59;;;7.74;100.00
25759;BME280;13604;52.496;13.456;2023-04-01T13:31:26;99839.81;;;8.00;100.00
25759;BME280;13604;52.496;13.456;2023-04-01T13:37:02;99852.22;;;7.66;100.00
25759;BME280;13604;52.496;13.456;2023-04-01T13:39:44;99853.34;;;7.71;100.00
25759;BME280;13604;52.496;13.456;2023-04-01T13:42:28;99861.00;;;7.89;100.00
25759;BME280;13604;52.496;13.456;2023-04-01T13:45:12;99851.19;;;7.82;100.00
25759;BME280;13604;52.496;13.456;2023-04-01T13:53:51;99858.16;;;7.83;100.00
25759;BME280;13604;52.496;13.456;2023-04-01T14:02:42;99867.50;;;8.43;100.00
25759;BME280;13604;52.496;13.456;2023-04-01T14:10:49;99882.59;;;8.32;100.00
25759;BME280;13604;52.496;13.456;2023-04-01T14:13:23;99840.34;;;7.92;100.00
25759;BME280;13604;52.496;13.456;2023-04-01T14:18:39;99874.91;;;8.13;99.58
25759;BME280;13604;52.496;13.456;2023-04-01T14:21:38;99878.25;;;8.10;99.89
25759;BME280;13604;52.496;13.456;2023-04-01T14:24:32;99880.44;;;8.01;100.00
25759;BME280;13604;52.496;13.456;2023-04-01T14:27:21;99892.59;;;8.02;100.00
25759;BME280;13604;52.496;13.456;2023-04-01T14:32:45;99874.69;;;7.66;99.22
25759;BME280;13604;52.496;13.456;2023-04-01T14:43:26;99923.78;;;7.43;100.00
25759;BME280;13604;52.496;13.456;2023-04-01T14:49:02;99933.75;;;7.34;100.00
25759;BME280;13604;52.496;13.456;2023-04-01T14:51:34;99919.38;;;7.41;100.00
25759;BME280;13604;52.496;13.456;2023-04-01T14:54:15;99919.81;;;7.51;100.00
25759;BME280;13604;52.496;13.456;2023-04-01T14:56:49;99942.94;;;7.66;100.00
25759;BME280;13604;52.496;13.456;2023-04-01T15:01:50;99951.19;;;7.38;100.00
25759;BME280;13604;52.496;13.456;2023-04-01T15:04:35;99921.38;;;7.09;100.00
25759;BME280;13604;52.496;13.456;2023-04-01T15:07:33;99960.91;;;7.05;100.00
25759;BME280;13604;52.496;13.456;2023-04-01T15:10:13;99948.19;;;6.91;100.00
25759;BME280;13604;52.496;13.456;2023-04-01T15:24:20;99975.03;;;6.75;100.00
25759;BME280;13604;52.496;13.456;2023-04-01T15:27:25;99976.06;;;6.79;100.00
25759;BME280;13604;52.496;13.456;2023-04-01T15:30:16;99978.31;;;6.71;100.00
25759;BME280;13604;52.496;13.456;2023-04-01T15:33:06;99984.91;;;6.82;100.00
25759;BME280;13604;52.496;13.456;2023-04-01T15:35:51;99985.16;;;6.71;100.00
25759;BME280;13604;52.496;13.456;2023-04-01T15:38:26;99984.66;;;6.60;100.00
25759;BME280;13604;52.496;13.456;2023-04-01T15:41:03;99987.72;;;6.53;100.00
25759;BME280;13604;52.496;13.456;2023-04-01T15:43:41;99999.22;;;6.58;100.00
25759;BME280;13604;52.496;13.456;2023-04-01T15:46:21;99989.22;;;6.66;100.00
25759;BME280;13604;52.496;13.456;2023-04-01T15:51:51;100011.06;;;6.36;100.00
25759;BME280;13604;52.496;13.456;2023-04-01T15:54:57;100005.84;;;6.18;100.00
25759;BME280;13604;52.496;13.456;2023-04-01T16:00:09;100025.84;;;6.04;100.00
25759;BME280;13604;52.496;13.456;2023-04-01T16:02:47;100020.03;;;5.92;100.00
25759;BME280;13604;52.496;13.456;2023-04-01T16:05:34;100022.91;;;5.82;100.00
25759;BME280;13604;52.496;13.456;2023-04-01T16:08:08;100030.09;;;5.87;100.00
25759;BME280;13604;52.496;13.456;2023-04-01T16:10:37;100033.50;;;5.86;100.00
25759;BME280;13604;52.496;13.456;2023-04-01T16:19:18;100057.16;;;5.61;100.00
25759;BME280;13604;52.496;13.456;2023-04-01T16:21:48;100057.16;;;5.61;100.00
25759;BME280;13604;52.496;13.456;2023-04-01T16:30:48;100076.69;;;5.56;100.00
25759;BME280;13604;52.496;13.456;2023-04-01T16:33:20;100072.78;;;5.48;100.00
25759;BME280;13604;52.496;13.456;2023-04-01T16:41:24;100091.97;;;5.37;100.00
25759;BME280;13604;52.496;13.456;2023-04-01T16:44:14;100098.47;;;5.30;100.00
25759;BME280;13604;52.496;13.456;2023-04-01T16:46:46;100097.56;;;5.29;100.00
25759;BME280;13604;52.496;13.456;2023-04-01T16:49:25;100034.91;;;5.01;100.00
25759;BME280;13604;52.496;13.456;2023-04-01T16:54:40;100119.63;;;5.39;100.00
25759;BME280;13604;52.496;13.456;2023-04-01T16:59:38;100117.47;;;5.01;100.00
25759;BME280;13604;52.496;13.456;2023-04-01T17:02:12;100121.75;;;5.00;100.00
25759;BME280;13604;52.496;13.456;2023-04-01T17:04:47;100131.63;;;4.92;100.00
25759;BME280;13604;52.496;13.456;2023-04-01T17:07:27;100112.84;;;4.80;100.00
25759;BME280;13604;52.496;13.456;2023-04-01T17:10:37;100142.75;;;4.91;100.00
25759;BME280;13604;52.496;13.456;2023-04-01T17:15:55;100149.50;;;4.74;100.00
25759;BME280;13604;52.496;13.456;2023-04-01T17:18:43;100165.53;;;4.69;100.00
25759;BME280;13604;52.496;13.456;2023-04-01T17:21:23;100156.16;;;4.56;100.00
25759;BME280;13604;52.496;13.456;2023-04-01T17:23:52;100124.06;;;4.22;100.00
25759;BME280;13604;52.496;13.456;2023-04-01T17:26:37;100122.84;;;4.31;100.00